Time;durP1;ratioP1;P1;durP2;ratioP2;P2;SDS_P1;SDS_P2;PMS_P1;PMS_P2;Temp;Humidity;BMP_temperature;BMP_pressure;BME280_temperature;BME280_humidity;BME280_pressure;Samples;Min_cycle;Max_cycle;Signal;HPM_P1;HPM_P2
2022/03/21 00:00:51;;;;;;;17.30;10.90;;;;;;;;;;5028830;28;20452;-80
2022/03/21 00:03:19;;;;;;;15.70;10.95;;;;;;;;;;5025150;28;20140;-80
2022/03/21 00:05:45;;;;;;;17.65;10.98;;;;;;;;;;5045573;28;20037;-80
2022/03/21 00:08:11;;;;;;;16.98;11.13;;;;;;;;;;5027808;28;20048;-80
2022/03/21 00:10:38;;;;;;;20.52;11.75;;;;;;;;;;5029035;28;20044;-79
2022/03/21 00:13:04;;;;;;;18.42;11.30;;;;;;;;;;5024699;28;20377;-80
2022/03/21 00:15:32;;;;;;;18.02;10.90;;;;;;;;;;5039627;28;20051;-80
2022/03/21 00:17:57;;;;;;;18.77;10.95;;;;;;;;;;5026031;28;20051;-79
2022/03/21 00:20:23;;;;;;;17.27;11.23;;;;;;;;;;5028510;28;20029;-80
2022/03/21 00:22:50;;;;;;;15.55;10.73;;;;;;;;;;5030584;28;20152;-80
2022/03/21 00:25:16;;;;;;;18.38;11.27;;;;;;;;;;5024519;28;20045;-80
2022/03/21 00:27:41;;;;;;;17.60;10.98;;;;;;;;;;5029415;28;20510;-80
2022/03/21 00:30:09;;;;;;;18.27;11.10;;;;;;;;;;5027962;28;20033;-80
2022/03/21 00:32:35;;;;;;;19.60;11.13;;;;;;;;;;5029311;28;20037;-79
2022/03/21 00:35:01;;;;;;;16.98;10.98;;;;;;;;;;5024659;28;20365;-79
2022/03/21 00:37:27;;;;;;;16.40;10.52;;;;;;;;;;5041207;28;20047;-81
2022/03/21 00:39:53;;;;;;;15.88;10.40;;;;;;;;;;5030726;28;20044;-79
2022/03/21 00:42:19;;;;;;;17.45;10.27;;;;;;;;;;5039426;28;20148;-80
2022/03/21 00:44:44;;;;;;;17.05;11.10;;;;;;;;;;5027910;28;20045;-79
2022/03/21 00:47:10;;;;;;;15.75;10.23;;;;;;;;;;5026295;28;20029;-79
2022/03/21 00:49:35;;;;;;;16.80;11.15;;;;;;;;;;5033976;28;20048;-80
2022/03/21 00:52:01;;;;;;;15.23;10.15;;;;;;;;;;5024928;28;20119;-79
2022/03/21 00:54:26;;;;;;;18.45;11.57;;;;;;;;;;5028121;28;20045;-80
2022/03/21 00:56:52;;;;;;;16.05;10.05;;;;;;;;;;5044981;28;20593;-80
2022/03/21 00:59:17;;;;;;;17.23;10.77;;;;;;;;;;5032244;28;20121;-81
2022/03/21 01:01:42;;;;;;;16.20;10.50;;;;;;;;;;5047227;28;20043;-80
2022/03/21 01:04:08;;;;;;;15.52;10.18;;;;;;;;;;5033366;28;20523;-80
2022/03/21 01:06:35;;;;;;;14.80;10.18;;;;;;;;;;5042125;28;20041;-80
2022/03/21 01:09:00;;;;;;;16.95;10.93;;;;;;;;;;5032301;28;20040;-80
2022/03/21 01:11:26;;;;;;;15.82;10.45;;;;;;;;;;5042844;28;20037;-79
2022/03/21 01:13:51;;;;;;;15.90;10.32;;;;;;;;;;5042419;28;20041;-80
2022/03/21 01:16:17;;;;;;;16.17;10.45;;;;;;;;;;5043238;28;20048;-80
2022/03/21 01:18:45;;;;;;;12.73;9.32;;;;;;;;;;5033631;28;20033;-80
2022/03/21 01:21:12;;;;;;;16.25;10.38;;;;;;;;;;5049986;28;20063;-80
2022/03/21 01:23:37;;;;;;;15.80;10.43;;;;;;;;;;5049223;28;20549;-81
2022/03/21 01:26:02;;;;;;;14.82;9.77;;;;;;;;;;5032753;28;20068;-80
2022/03/21 01:28:28;;;;;;;16.17;9.77;;;;;;;;;;5043366;28;20032;-80
2022/03/21 01:30:53;;;;;;;14.75;10.00;;;;;;;;;;5044778;28;20179;-80
2022/03/21 01:33:18;;;;;;;16.63;10.38;;;;;;;;;;5045860;28;20579;-80
2022/03/21 01:35:44;;;;;;;16.65;10.13;;;;;;;;;;5034573;28;20037;-80
2022/03/21 01:38:09;;;;;;;16.77;10.30;;;;;;;;;;5023018;28;20112;-79
2022/03/21 01:40:34;;;;;;;18.90;9.85;;;;;;;;;;5030025;28;20376;-80
2022/03/21 01:43:00;;;;;;;15.57;9.93;;;;;;;;;;5027490;28;20033;-81
2022/03/21 01:45:28;;;;;;;14.35;10.27;;;;;;;;;;5029118;28;20037;-80
2022/03/21 01:47:54;;;;;;;17.85;10.20;;;;;;;;;;5032506;28;20043;-80
2022/03/21 01:50:20;;;;;;;16.70;10.30;;;;;;;;;;5044175;28;20033;-80
2022/03/21 01:52:45;;;;;;;15.90;9.75;;;;;;;;;;5044706;28;20392;-80
2022/03/21 01:57:58;;;;;;;15.32;10.15;;;;;;;;;;5047604;28;20044;-79
2022/03/21 02:00:23;;;;;;;16.13;10.13;;;;;;;;;;5043691;28;20118;-79
2022/03/21 02:02:48;;;;;;;15.90;9.93;;;;;;;;;;5039482;28;20037;-79
2022/03/21 02:05:14;;;;;;;16.35;10.25;;;;;;;;;;5044152;28;20095;-79
2022/03/21 02:07:39;;;;;;;15.70;9.75;;;;;;;;;;5047319;28;20049;-79
2022/03/21 02:10:05;;;;;;;16.35;9.65;;;;;;;;;;5029801;28;20098;-80
2022/03/21 02:12:31;;;;;;;15.88;10.00;;;;;;;;;;5047379;28;20033;-79
2022/03/21 02:14:56;;;;;;;15.07;10.10;;;;;;;;;;5040821;28;20075;-80
2022/03/21 02:17:23;;;;;;;13.35;9.45;;;;;;;;;;5040787;28;20070;-80
2022/03/21 02:19:50;;;;;;;15.63;9.57;;;;;;;;;;5048332;28;20037;-80
2022/03/21 02:22:30;;;;;;;15.60;10.05;;;;;;;;;;5044867;28;20280;-79
2022/03/21 02:24:57;;;;;;;14.23;9.95;;;;;;;;;;5048907;28;20561;-80
2022/03/21 02:27:25;;;;;;;16.17;10.25;;;;;;;;;;5026776;28;20041;-80
2022/03/21 02:29:51;;;;;;;18.92;9.57;;;;;;;;;;5047788;28;20028;-79
2022/03/21 02:32:16;;;;;;;15.68;9.48;;;;;;;;;;5027751;28;20041;-80
2022/03/21 02:34:41;;;;;;;14.52;9.30;;;;;;;;;;5029136;28;20135;-80
2022/03/21 02:37:10;;;;;;;15.68;9.77;;;;;;;;;;5028616;28;20060;-79
2022/03/21 02:39:36;;;;;;;13.35;9.05;;;;;;;;;;5041674;28;20041;-80
2022/03/21 02:42:03;;;;;;;14.60;9.25;;;;;;;;;;5028908;28;20408;-80
2022/03/21 02:44:38;;;;;;;15.00;9.37;;;;;;;;;;5029459;28;20134;-79
2022/03/21 02:47:09;;;;;;;15.13;9.65;;;;;;;;;;5044948;28;20298;-80
2022/03/21 02:49:34;;;;;;;15.15;9.48;;;;;;;;;;5013592;28;20056;-80
2022/03/21 02:52:05;;;;;;;15.30;9.88;;;;;;;;;;5029636;28;20033;-79
2022/03/21 02:54:31;;;;;;;17.27;10.18;;;;;;;;;;5034772;28;20111;-80
2022/03/21 02:56:58;;;;;;;16.50;10.27;;;;;;;;;;5041480;28;20067;-79
2022/03/21 02:59:23;;;;;;;15.33;9.90;;;;;;;;;;5048263;28;20502;-79
2022/03/21 03:01:53;;;;;;;15.95;10.20;;;;;;;;;;5023864;28;20115;-81
2022/03/21 03:04:19;;;;;;;15.10;10.63;;;;;;;;;;5030614;28;20120;-79
2022/03/21 03:06:44;;;;;;;15.70;9.68;;;;;;;;;;5039572;28;20131;-80
2022/03/21 03:09:09;;;;;;;13.77;9.88;;;;;;;;;;5024258;28;20235;-79
2022/03/21 03:11:36;;;;;;;17.30;10.27;;;;;;;;;;5021384;28;20514;-80
2022/03/21 03:14:02;;;;;;;16.45;9.93;;;;;;;;;;5028120;28;20048;-80
2022/03/21 03:16:28;;;;;;;16.95;10.52;;;;;;;;;;5037494;28;20040;-80
2022/03/21 03:18:53;;;;;;;18.00;11.07;;;;;;;;;;5031374;28;20059;-80
2022/03/21 03:21:21;;;;;;;16.60;11.23;;;;;;;;;;5030393;28;20030;-79
2022/03/21 03:23:46;;;;;;;16.90;10.70;;;;;;;;;;5046920;28;20057;-79
2022/03/21 03:26:12;;;;;;;14.88;9.82;;;;;;;;;;5024153;28;20033;-80
2022/03/21 03:28:38;;;;;;;17.42;11.18;;;;;;;;;;5042197;28;20042;-79
2022/03/21 03:31:04;;;;;;;16.60;11.15;;;;;;;;;;5039836;28;20098;-79
2022/03/21 03:33:30;;;;;;;19.08;11.32;;;;;;;;;;5046083;28;20032;-79
2022/03/21 03:35:56;;;;;;;18.77;11.40;;;;;;;;;;5025627;28;20447;-79
2022/03/21 03:38:21;;;;;;;18.55;11.60;;;;;;;;;;5025417;28;20036;-79
2022/03/21 03:40:47;;;;;;;18.23;11.63;;;;;;;;;;5028362;28;20037;-79
2022/03/21 03:43:15;;;;;;;18.77;11.77;;;;;;;;;;5029501;28;20037;-80
2022/03/21 03:45:41;;;;;;;20.38;11.35;;;;;;;;;;5041312;28;20091;-79
2022/03/21 03:48:06;;;;;;;17.25;10.18;;;;;;;;;;5046069;28;20038;-79
2022/03/21 03:50:32;;;;;;;19.10;11.50;;;;;;;;;;5029359;28;20051;-79
2022/03/21 03:52:57;;;;;;;18.00;11.70;;;;;;;;;;5026693;28;20040;-79
2022/03/21 03:55:22;;;;;;;16.73;11.77;;;;;;;;;;5026915;28;20093;-82
2022/03/21 03:57:48;;;;;;;20.67;12.07;;;;;;;;;;5045759;28;20037;-81
2022/03/21 04:00:15;;;;;;;20.63;11.95;;;;;;;;;;5028949;28;20060;-80
2022/03/21 04:05:25;;;;;;;17.13;11.52;;;;;;;;;;5045837;28;20035;-81
2022/03/21 04:07:51;;;;;;;19.88;12.65;;;;;;;;;;5029365;28;20033;-81
2022/03/21 04:10:16;;;;;;;21.70;12.27;;;;;;;;;;5041829;28;21462;-81
2022/03/21 04:12:43;;;;;;;20.05;12.23;;;;;;;;;;5027774;28;20040;-81
2022/03/21 04:15:09;;;;;;;21.58;12.73;;;;;;;;;;5028807;28;20036;-81
2022/03/21 04:17:35;;;;;;;22.25;12.40;;;;;;;;;;5041636;28;20033;-82
2022/03/21 04:20:02;;;;;;;20.67;13.23;;;;;;;;;;5028765;28;20399;-81
2022/03/21 04:22:28;;;;;;;18.98;12.90;;;;;;;;;;5016027;28;20508;-80
2022/03/21 04:24:53;;;;;;;20.67;13.50;;;;;;;;;;5043774;28;20041;-80
2022/03/21 04:27:18;;;;;;;22.52;14.00;;;;;;;;;;5035760;28;20033;-81
2022/03/21 04:29:44;;;;;;;21.05;13.50;;;;;;;;;;5024318;28;20100;-81
2022/03/21 04:32:09;;;;;;;23.05;14.27;;;;;;;;;;5026638;28;20029;-80
2022/03/21 04:34:34;;;;;;;21.40;13.88;;;;;;;;;;5025557;28;20041;-80
2022/03/21 04:37:00;;;;;;;23.60;14.13;;;;;;;;;;5011621;28;20784;-80
2022/03/21 04:39:25;;;;;;;22.13;15.05;;;;;;;;;;5038599;28;20120;-80
2022/03/21 04:41:51;;;;;;;22.20;14.43;;;;;;;;;;5038441;28;20881;-80
2022/03/21 04:44:16;;;;;;;24.77;14.95;;;;;;;;;;5027948;28;20100;-80
2022/03/21 04:46:41;;;;;;;22.38;14.73;;;;;;;;;;5026424;28;20048;-81
2022/03/21 04:49:06;;;;;;;23.05;14.75;;;;;;;;;;5029905;28;20040;-80
2022/03/21 04:51:32;;;;;;;26.63;16.30;;;;;;;;;;5027174;28;20474;-80
2022/03/21 04:53:57;;;;;;;24.02;14.80;;;;;;;;;;5040868;28;20044;-80
2022/03/21 04:56:22;;;;;;;26.58;16.00;;;;;;;;;;5039478;28;20030;-80
2022/03/21 04:58:48;;;;;;;24.27;14.68;;;;;;;;;;5026432;28;20057;-80
2022/03/21 05:01:14;;;;;;;22.25;14.57;;;;;;;;;;5028960;28;20037;-81
2022/03/21 05:03:40;;;;;;;25.40;15.30;;;;;;;;;;5038952;28;20044;-81
2022/03/21 05:06:05;;;;;;;23.48;14.57;;;;;;;;;;5028389;28;20396;-81
2022/03/21 05:08:31;;;;;;;25.60;15.32;;;;;;;;;;5043672;28;20032;-81
2022/03/21 05:10:56;;;;;;;25.98;15.40;;;;;;;;;;5027620;28;20025;-80
2022/03/21 05:13:22;;;;;;;28.90;15.82;;;;;;;;;;5027279;28;20037;-81
2022/03/21 05:15:47;;;;;;;24.02;15.20;;;;;;;;;;5026478;28;20120;-81
2022/03/21 05:18:12;;;;;;;25.95;16.52;;;;;;;;;;5024707;28;20477;-81
2022/03/21 05:20:38;;;;;;;26.13;15.68;;;;;;;;;;5039161;28;20455;-80
2022/03/21 05:31:15;;;;;;;24.88;16.35;;;;;;;;;;5040655;28;20091;-81
2022/03/21 05:36:27;;;;;;;26.83;16.20;;;;;;;;;;5047008;28;20100;-80
2022/03/21 05:38:53;;;;;;;24.33;15.77;;;;;;;;;;5042347;28;20558;-80
2022/03/21 05:41:19;;;;;;;29.08;16.42;;;;;;;;;;5010615;28;20110;-81
2022/03/21 05:43:44;;;;;;;28.92;16.73;;;;;;;;;;5032389;28;20065;-80
2022/03/21 05:46:09;;;;;;;23.58;15.77;;;;;;;;;;5044378;28;20391;-80
2022/03/21 05:48:50;;;;;;;24.95;15.88;;;;;;;;;;5042736;28;20040;-80
2022/03/21 05:51:23;;;;;;;37.08;20.88;;;;;;;;;;5044158;28;20193;-79
2022/03/21 05:53:49;;;;;;;30.20;16.67;;;;;;;;;;5033683;28;20040;-80
2022/03/21 05:56:15;;;;;;;24.92;15.40;;;;;;;;;;5044606;28;20040;-79
2022/03/21 05:58:41;;;;;;;25.70;16.38;;;;;;;;;;5026538;28;20471;-80
2022/03/21 06:01:07;;;;;;;25.75;16.17;;;;;;;;;;5031159;28;20040;-79
2022/03/21 06:03:32;;;;;;;26.83;14.93;;;;;;;;;;5031735;28;20092;-80
2022/03/21 06:05:59;;;;;;;24.63;15.82;;;;;;;;;;5032035;28;20631;-79
2022/03/21 06:08:25;;;;;;;25.50;15.30;;;;;;;;;;5025305;28;20037;-80
2022/03/21 06:10:51;;;;;;;25.35;16.15;;;;;;;;;;5021935;28;20044;-79
2022/03/21 06:13:17;;;;;;;26.30;16.05;;;;;;;;;;5034294;28;20059;-80
2022/03/21 06:15:45;;;;;;;24.92;14.95;;;;;;;;;;5041121;28;20408;-79
2022/03/21 06:18:14;;;;;;;27.65;15.60;;;;;;;;;;5030051;28;20041;-79
2022/03/21 06:20:40;;;;;;;23.40;15.18;;;;;;;;;;5032766;28;20047;-80
2022/03/21 06:23:06;;;;;;;26.48;15.13;;;;;;;;;;5033499;28;20042;-78
2022/03/21 06:25:32;;;;;;;25.52;15.63;;;;;;;;;;5041853;28;20057;-79
2022/03/21 06:27:57;;;;;;;27.40;15.98;;;;;;;;;;5042236;28;20037;-79
2022/03/21 06:30:23;;;;;;;25.67;15.80;;;;;;;;;;5029833;28;20067;-79
2022/03/21 06:32:48;;;;;;;21.65;13.88;;;;;;;;;;5027260;28;20033;-79
2022/03/21 06:35:13;;;;;;;22.25;15.15;;;;;;;;;;5043248;28;20071;-80
2022/03/21 06:37:39;;;;;;;23.92;15.43;;;;;;;;;;5027528;28;20645;-80
2022/03/21 06:40:05;;;;;;;22.80;15.18;;;;;;;;;;5046428;28;20036;-80
2022/03/21 06:42:30;;;;;;;25.10;15.68;;;;;;;;;;5007940;28;20102;-81
2022/03/21 06:44:56;;;;;;;26.15;15.23;;;;;;;;;;5024063;28;20041;-80
2022/03/21 06:47:21;;;;;;;31.42;14.95;;;;;;;;;;5048174;28;20497;-80
2022/03/21 06:49:47;;;;;;;26.40;15.15;;;;;;;;;;5022362;28;20038;-80
2022/03/21 06:52:13;;;;;;;25.77;14.05;;;;;;;;;;5004623;28;20405;-80
2022/03/21 06:54:38;;;;;;;25.77;14.82;;;;;;;;;;5021672;28;20041;-81
2022/03/21 06:57:04;;;;;;;23.15;14.13;;;;;;;;;;5017142;28;20025;-81
2022/03/21 06:59:30;;;;;;;25.98;15.32;;;;;;;;;;5040101;28;20103;-81
2022/03/21 07:01:56;;;;;;;29.42;15.15;;;;;;;;;;5037653;28;20041;-81
2022/03/21 07:04:23;;;;;;;26.35;15.07;;;;;;;;;;5030608;28;20064;-81
2022/03/21 07:06:48;;;;;;;23.67;14.40;;;;;;;;;;5029817;28;20045;-82
2022/03/21 07:09:13;;;;;;;43.78;22.70;;;;;;;;;;5031375;28;20039;-81
2022/03/21 07:11:39;;;;;;;25.35;15.23;;;;;;;;;;5041915;28;20049;-81
2022/03/21 07:14:04;;;;;;;22.67;15.15;;;;;;;;;;5045103;28;20086;-82
2022/03/21 07:16:29;;;;;;;21.90;14.15;;;;;;;;;;5013185;28;20048;-82
2022/03/21 07:18:54;;;;;;;24.45;13.55;;;;;;;;;;5026176;28;20049;-82
2022/03/21 07:21:20;;;;;;;21.35;13.40;;;;;;;;;;5014191;28;20047;-80
2022/03/21 07:23:45;;;;;;;22.23;13.73;;;;;;;;;;5011425;28;20083;-80
2022/03/21 07:26:12;;;;;;;25.98;14.73;;;;;;;;;;5027865;28;20083;-80
2022/03/21 07:28:37;;;;;;;24.35;13.57;;;;;;;;;;5031632;28;20107;-80
2022/03/21 07:31:09;;;;;;;20.30;13.07;;;;;;;;;;5025787;28;20383;-80
2022/03/21 07:33:35;;;;;;;23.05;13.55;;;;;;;;;;5040361;28;20460;-80
2022/03/21 07:36:00;;;;;;;20.92;13.70;;;;;;;;;;5028667;28;20115;-80
2022/03/21 07:38:28;;;;;;;21.40;13.40;;;;;;;;;;5029781;28;20593;-80
2022/03/21 07:40:53;;;;;;;19.05;12.60;;;;;;;;;;5017942;28;20575;-82
2022/03/21 07:43:18;;;;;;;18.65;12.52;;;;;;;;;;5029472;28;20041;-82
2022/03/21 07:48:27;;;;;;;19.17;11.55;;;;;;;;;;5048028;28;20098;-81
2022/03/21 07:50:53;;;;;;;18.33;11.60;;;;;;;;;;5028648;28;20029;-82
2022/03/21 07:53:19;;;;;;;18.60;11.63;;;;;;;;;;5045124;28;20040;-81
2022/03/21 07:55:44;;;;;;;18.40;11.30;;;;;;;;;;5028638;28;20036;-80
2022/03/21 07:58:09;;;;;;;15.80;10.10;;;;;;;;;;5039863;28;20148;-81
2022/03/21 08:00:35;;;;;;;15.73;9.85;;;;;;;;;;5026348;28;20076;-81
2022/03/21 08:03:00;;;;;;;16.20;10.27;;;;;;;;;;5025449;28;20098;-81
2022/03/21 08:05:28;;;;;;;15.38;9.45;;;;;;;;;;5028646;28;20041;-81
2022/03/21 08:07:53;;;;;;;;;;;;;;;;;;5037325;28;20037;-81
2022/03/21 08:10:19;;;;;;;20.47;9.97;;;;;;;;;;5040185;28;20973;-81
2022/03/21 08:12:46;;;;;;;16.52;9.60;;;;;;;;;;5046341;28;20908;-80
2022/03/21 08:15:13;;;;;;;15.95;9.00;;;;;;;;;;5020257;28;20033;-82
2022/03/21 08:17:59;;;;;;;15.80;9.50;;;;;;;;;;5026230;28;20033;-82
2022/03/21 08:20:33;;;;;;;15.52;9.07;;;;;;;;;;5025912;28;20099;-81
2022/03/21 08:22:58;;;;;;;14.32;9.25;;;;;;;;;;5039910;28;20040;-82
2022/03/21 08:25:25;;;;;;;14.75;8.07;;;;;;;;;;5027592;28;20045;-81
2022/03/21 08:27:50;;;;;;;11.05;8.02;;;;;;;;;;5025330;28;20794;-80
2022/03/21 08:30:18;;;;;;;11.80;7.80;;;;;;;;;;5027481;28;20036;-82
2022/03/21 08:32:50;;;;;;;13.10;8.00;;;;;;;;;;5040046;28;20033;-82
2022/03/21 08:35:21;;;;;;;14.93;7.78;;;;;;;;;;5024845;28;20571;-81
2022/03/21 08:37:47;;;;;;;23.77;8.10;;;;;;;;;;4991989;28;20041;-81
2022/03/21 08:40:13;;;;;;;11.93;7.47;;;;;;;;;;5013148;28;20037;-81
2022/03/21 08:42:39;;;;;;;11.45;7.85;;;;;;;;;;5034395;28;20199;-81
2022/03/21 08:45:08;;;;;;;11.85;7.78;;;;;;;;;;5022985;28;20072;-81
2022/03/21 08:47:34;;;;;;;12.23;7.97;;;;;;;;;;5038387;28;20029;-81
2022/03/21 08:50:00;;;;;;;13.45;8.18;;;;;;;;;;5038975;28;20516;-81
2022/03/21 08:52:26;;;;;;;13.45;7.55;;;;;;;;;;5041598;28;20029;-81
2022/03/21 08:54:51;;;;;;;13.02;8.40;;;;;;;;;;5029456;28;20032;-81
2022/03/21 08:57:16;;;;;;;12.20;7.93;;;;;;;;;;5028025;28;20163;-81
2022/03/21 08:59:42;;;;;;;15.63;7.90;;;;;;;;;;5028364;28;20096;-81
2022/03/21 09:02:10;;;;;;;12.40;8.07;;;;;;;;;;5023555;28;20115;-81
2022/03/21 09:04:35;;;;;;;14.38;7.97;;;;;;;;;;5023299;28;20066;-82
2022/03/21 09:07:01;;;;;;;13.13;8.15;;;;;;;;;;5044055;28;20037;-81
2022/03/21 09:09:27;;;;;;;11.32;7.97;;;;;;;;;;5047356;28;20037;-81
2022/03/21 09:11:52;;;;;;;12.05;7.68;;;;;;;;;;5041704;28;20030;-81
2022/03/21 09:14:17;;;;;;;14.20;7.63;;;;;;;;;;5026238;28;21030;-82
2022/03/21 09:16:45;;;;;;;11.60;7.40;;;;;;;;;;5033026;28;20503;-82
2022/03/21 09:19:11;;;;;;;11.85;7.72;;;;;;;;;;5032598;28;20040;-82
2022/03/21 09:21:37;;;;;;;10.95;7.00;;;;;;;;;;5031929;28;20037;-82
2022/03/21 09:24:03;;;;;;;10.75;7.45;;;;;;;;;;5019403;28;20056;-81
2022/03/21 09:26:28;;;;;;;11.05;7.47;;;;;;;;;;5026722;28;20102;-81
2022/03/21 09:29:00;;;;;;;11.07;7.40;;;;;;;;;;5031453;28;20036;-81
2022/03/21 09:31:29;;;;;;;11.48;7.38;;;;;;;;;;5024301;28;20992;-81
2022/03/21 09:33:54;;;;;;;10.10;7.07;;;;;;;;;;5036098;28;20041;-81
2022/03/21 09:36:20;;;;;;;10.15;6.82;;;;;;;;;;5029894;28;20598;-81
2022/03/21 09:38:45;;;;;;;10.30;6.80;;;;;;;;;;5030756;28;20087;-82
2022/03/21 09:41:13;;;;;;;9.88;6.78;;;;;;;;;;5026816;28;20029;-82
2022/03/21 09:43:39;;;;;;;;;;;;;;;;;;5031092;28;20094;-82
2022/03/21 09:46:06;;;;;;;12.13;6.68;;;;;;;;;;5028770;28;20355;-82
2022/03/21 09:48:32;;;;;;;;;;;;;;;;;;5031073;28;20483;-82
2022/03/21 09:50:58;;;;;;;9.18;6.68;;;;;;;;;;5044223;28;19952;-82
2022/03/21 09:53:25;;;;;;;10.63;6.47;;;;;;;;;;5018356;28;20061;-82
2022/03/21 09:55:51;;;;;;;12.93;6.70;;;;;;;;;;5021363;28;20124;-82
2022/03/21 09:58:16;;;;;;;10.93;6.85;;;;;;;;;;5032405;28;20120;-83
2022/03/21 10:00:43;;;;;;;10.15;6.68;;;;;;;;;;5030173;28;20033;-83
2022/03/21 10:03:09;;;;;;;9.70;7.03;;;;;;;;;;5030897;28;20063;-80
2022/03/21 10:05:34;;;;;;;10.20;6.88;;;;;;;;;;5041647;28;20045;-81
2022/03/21 10:08:23;;;;;;;11.98;7.03;;;;;;;;;;5044134;28;20931;-82
2022/03/21 10:10:57;;;;;;;10.98;6.50;;;;;;;;;;5042401;28;20052;-81
2022/03/21 10:13:25;;;;;;;12.50;6.90;;;;;;;;;;5043066;28;20053;-82
2022/03/21 10:16:08;;;;;;;11.48;7.30;;;;;;;;;;5039315;28;20033;-82
2022/03/21 10:18:35;;;;;;;9.43;6.93;;;;;;;;;;5023329;28;20094;-81
2022/03/21 10:21:14;;;;;;;11.80;7.40;;;;;;;;;;5002644;28;20500;-81
2022/03/21 10:23:40;;;;;;;14.02;7.55;;;;;;;;;;5030598;28;20040;-81
2022/03/21 10:26:28;;;;;;;11.10;6.70;;;;;;;;;;5029457;28;20040;-82
2022/03/21 10:28:56;;;;;;;12.40;7.20;;;;;;;;;;5039172;28;20033;-81
2022/03/21 10:31:34;;;;;;;13.27;7.13;;;;;;;;;;5014294;28;20037;-82
2022/03/21 10:34:00;;;;;;;11.45;7.13;;;;;;;;;;5028173;28;20799;-82
2022/03/21 10:36:26;;;;;;;10.30;7.20;;;;;;;;;;5027329;28;20543;-82
2022/03/21 10:39:05;;;;;;;12.88;8.23;;;;;;;;;;5031396;28;20068;-82
2022/03/21 10:41:35;;;;;;;12.32;7.30;;;;;;;;;;5019505;28;20661;-82
2022/03/21 10:44:01;;;;;;;13.35;6.88;;;;;;;;;;5029157;28;20043;-83
2022/03/21 10:46:27;;;;;;;9.15;6.63;;;;;;;;;;5043872;28;20462;-82
2022/03/21 10:49:06;;;;;;;10.93;7.65;;;;;;;;;;5023994;28;20048;-83
2022/03/21 10:51:47;;;;;;;11.30;6.85;;;;;;;;;;5024479;28;20613;-82
2022/03/21 10:54:37;;;;;;;13.40;9.18;;;;;;;;;;5044144;28;20526;-83
2022/03/21 10:57:03;;;;;;;10.13;6.82;;;;;;;;;;5037891;28;20029;-82
2022/03/21 10:59:29;;;;;;;9.60;6.75;;;;;;;;;;5032123;28;20082;-83
2022/03/21 11:02:26;;;;;;;9.32;6.75;;;;;;;;;;5037461;28;20579;-82
2022/03/21 11:04:52;;;;;;;10.00;6.55;;;;;;;;;;4993941;28;22189;-83
2022/03/21 11:07:17;;;;;;;10.65;6.70;;;;;;;;;;5029839;28;20040;-83
2022/03/21 11:09:43;;;;;;;9.65;5.85;;;;;;;;;;5025790;28;20118;-83
2022/03/21 11:12:09;;;;;;;14.73;5.75;;;;;;;;;;5025476;28;20054;-83
2022/03/21 11:14:38;;;;;;;9.43;6.22;;;;;;;;;;5022456;28;20391;-82
2022/03/21 11:17:05;;;;;;;8.48;6.53;;;;;;;;;;5027277;28;20500;-83
2022/03/21 11:19:30;;;;;;;9.27;6.33;;;;;;;;;;5024747;28;20041;-84
2022/03/21 11:21:56;;;;;;;12.20;6.20;;;;;;;;;;5024709;28;20289;-83
2022/03/21 11:24:21;;;;;;;9.20;6.90;;;;;;;;;;5044697;28;20045;-82
2022/03/21 11:27:00;;;;;;;8.70;6.05;;;;;;;;;;5041766;28;20029;-81
2022/03/21 11:29:39;;;;;;;9.13;6.28;;;;;;;;;;5026005;28;20502;-82
2022/03/21 11:32:32;;;;;;;8.40;5.78;;;;;;;;;;5028814;28;20129;-81
2022/03/21 11:35:11;;;;;;;9.30;5.88;;;;;;;;;;5042330;28;20117;-82
2022/03/21 11:37:37;;;;;;;8.15;5.50;;;;;;;;;;5024779;28;20151;-81
2022/03/21 11:40:25;;;;;;;8.55;5.40;;;;;;;;;;5045854;28;20124;-81
2022/03/21 11:42:52;;;;;;;9.90;5.30;;;;;;;;;;5028211;28;20040;-83
2022/03/21 11:45:30;;;;;;;10.48;5.80;;;;;;;;;;5027857;28;20037;-83
2022/03/21 11:48:17;;;;;;;8.18;5.70;;;;;;;;;;5045096;28;20175;-81
2022/03/21 11:50:44;;;;;;;8.65;5.70;;;;;;;;;;5038999;28;20674;-82
2022/03/21 11:53:10;;;;;;;7.90;5.50;;;;;;;;;;5041871;28;20038;-82
2022/03/21 11:55:43;;;;;;;7.47;4.97;;;;;;;;;;5026681;28;20044;-81
2022/03/21 11:58:42;;;;;;;8.95;5.45;;;;;;;;;;5037049;28;20036;-82
2022/03/21 12:01:28;;;;;;;7.20;5.55;;;;;;;;;;5026079;28;20151;-82
2022/03/21 12:03:53;;;;;;;8.05;5.20;;;;;;;;;;5024634;28;20587;-83
2022/03/21 12:06:33;;;;;;;7.25;5.30;;;;;;;;;;5019114;28;20099;-82
2022/03/21 12:09:08;;;;;;;8.63;5.47;;;;;;;;;;5026657;28;20033;-81
2022/03/21 12:11:46;;;;;;;8.60;5.70;;;;;;;;;;5029876;28;20080;-81
2022/03/21 12:14:24;;;;;;;10.90;6.10;;;;;;;;;;5038601;28;20439;-81
2022/03/21 12:17:01;;;;;;;8.32;6.07;;;;;;;;;;5032416;28;20041;-81
2022/03/21 12:20:02;;;;;;;9.20;5.95;;;;;;;;;;5039707;28;20123;-81
2022/03/21 12:22:30;;;;;;;14.48;7.30;;;;;;;;;;5041763;28;20037;-81
2022/03/21 12:24:58;;;;;;;9.57;6.18;;;;;;;;;;5041914;28;20041;-81
2022/03/21 12:27:37;;;;;;;10.95;6.68;;;;;;;;;;5037875;28;20040;-81
2022/03/21 12:32:49;;;;;;;8.60;6.43;;;;;;;;;;5040610;28;20070;-80
2022/03/21 12:35:44;;;;;;;11.43;5.72;;;;;;;;;;5028327;28;20038;-81
2022/03/21 12:38:32;;;;;;;10.32;6.15;;;;;;;;;;5034279;28;20047;-81
2022/03/21 12:41:02;;;;;;;10.30;6.03;;;;;;;;;;5038952;28;20049;-81
2022/03/21 12:43:28;;;;;;;12.75;6.50;;;;;;;;;;5027975;28;20041;-81
2022/03/21 12:46:11;;;;;;;10.63;6.07;;;;;;;;;;5047658;28;20036;-83
2022/03/21 12:48:40;;;;;;;13.75;5.75;;;;;;;;;;5031454;28;20532;-81
2022/03/21 12:51:07;;;;;;;14.00;6.40;;;;;;;;;;5032652;28;20033;-81
2022/03/21 12:53:44;;;;;;;9.35;5.47;;;;;;;;;;5029938;28;20507;-81
2022/03/21 12:56:12;;;;;;;10.98;6.30;;;;;;;;;;5033026;28;20044;-81
2022/03/21 12:58:41;;;;;;;9.23;6.35;;;;;;;;;;5034938;28;20045;-81
2022/03/21 13:01:07;;;;;;;12.07;6.18;;;;;;;;;;5025537;28;20029;-82
2022/03/21 13:03:35;;;;;;;11.15;6.30;;;;;;;;;;5032374;28;20407;-81
2022/03/21 13:11:36;;;;;;;11.98;6.40;;;;;;;;;;5046735;28;20044;-82
2022/03/21 13:14:13;;;;;;;8.07;6.13;;;;;;;;;;5049276;28;20052;-81
2022/03/21 13:16:44;;;;;;;;;;;;;;;;;;5021165;28;20400;-82
2022/03/21 13:19:15;;;;;;;9.15;5.95;;;;;;;;;;5039302;28;19943;-82
2022/03/21 13:21:40;;;;;;;9.63;6.70;;;;;;;;;;5045979;28;20714;-82
2022/03/21 13:24:05;;;;;;;9.88;6.25;;;;;;;;;;5047483;28;20041;-82
2022/03/21 13:26:33;;;;;;;10.25;6.80;;;;;;;;;;5031357;28;20060;-81
2022/03/21 13:29:10;;;;;;;8.57;6.60;;;;;;;;;;5035559;28;20695;-81
2022/03/21 13:31:36;;;;;;;8.52;6.20;;;;;;;;;;5018806;28;20121;-81
2022/03/21 13:34:05;;;;;;;10.05;6.30;;;;;;;;;;5027523;28;20124;-81
2022/03/21 13:36:31;;;;;;;9.55;6.00;;;;;;;;;;5043654;28;20056;-81
2022/03/21 13:39:16;;;;;;;10.82;5.97;;;;;;;;;;5029630;28;20399;-82
2022/03/21 13:41:52;;;;;;;9.52;6.38;;;;;;;;;;5030952;28;20064;-82
2022/03/21 13:44:17;;;;;;;10.95;6.38;;;;;;;;;;5043189;28;20033;-81
2022/03/21 13:47:00;;;;;;;12.82;6.85;;;;;;;;;;5027602;28;20165;-80
2022/03/21 13:49:47;;;;;;;11.15;7.07;;;;;;;;;;5032035;28;20048;-81
2022/03/21 13:52:15;;;;;;;14.15;6.53;;;;;;;;;;5048219;28;20041;-81
2022/03/21 13:54:54;;;;;;;11.38;6.22;;;;;;;;;;5038578;28;20214;-81
2022/03/21 13:57:20;;;;;;;9.95;6.63;;;;;;;;;;5042252;28;20141;-80
2022/03/21 14:00:06;;;;;;;8.73;6.13;;;;;;;;;;5015536;28;20048;-80
2022/03/21 14:02:42;;;;;;;10.05;6.53;;;;;;;;;;5023302;28;20048;-80
2022/03/21 14:05:30;;;;;;;9.13;6.32;;;;;;;;;;5039064;28;20051;-80
2022/03/21 14:08:15;;;;;;;11.13;6.82;;;;;;;;;;5031616;28;20068;-81
2022/03/21 14:10:43;;;;;;;8.88;6.03;;;;;;;;;;5029369;28;20101;-81
2022/03/21 14:13:19;;;;;;;10.10;6.03;;;;;;;;;;5028928;28;20037;-81
2022/03/21 14:15:45;;;;;;;12.70;6.53;;;;;;;;;;5046833;28;20059;-81
2022/03/21 14:18:11;;;;;;;9.10;5.97;;;;;;;;;;5047139;28;20052;-82
2022/03/21 14:20:40;;;;;;;11.98;6.60;;;;;;;;;;5028187;28;20063;-82
2022/03/21 14:23:07;;;;;;;9.27;6.43;;;;;;;;;;5029117;28;20060;-82
2022/03/21 14:28:16;;;;;;;9.13;6.07;;;;;;;;;;5042540;28;20049;-80
2022/03/21 14:30:41;;;;;;;10.90;6.38;;;;;;;;;;5026303;28;20091;-80
2022/03/21 14:33:07;;;;;;;9.90;6.47;;;;;;;;;;5044032;28;20037;-80
2022/03/21 14:35:32;;;;;;;13.88;6.70;;;;;;;;;;5038782;28;20041;-80
2022/03/21 14:37:57;;;;;;;14.02;6.35;;;;;;;;;;5026670;28;20041;-80
2022/03/21 14:40:23;;;;;;;9.70;6.45;;;;;;;;;;5032148;28;20091;-81
2022/03/21 14:42:51;;;;;;;10.45;6.20;;;;;;;;;;5029869;28;20040;-81
2022/03/21 14:45:17;;;;;;;10.60;6.10;;;;;;;;;;5024875;28;20495;-81
2022/03/21 14:47:43;;;;;;;8.30;5.97;;;;;;;;;;5030450;28;20114;-82
2022/03/21 14:50:09;;;;;;;11.50;5.95;;;;;;;;;;5026619;28;20064;-81
2022/03/21 14:52:35;;;;;;;8.05;5.65;;;;;;;;;;5027970;28;20040;-80
2022/03/21 14:55:00;;;;;;;9.57;5.45;;;;;;;;;;5024263;28;20500;-81
2022/03/21 14:57:26;;;;;;;8.65;5.35;;;;;;;;;;5032021;28;20048;-81
2022/03/21 14:59:51;;;;;;;8.60;5.43;;;;;;;;;;5029482;28;20033;-80
2022/03/21 15:02:17;;;;;;;9.02;5.55;;;;;;;;;;5030643;28;20033;-80
2022/03/21 15:04:42;;;;;;;8.65;5.22;;;;;;;;;;5041816;28;20484;-81